Aviation Digital Data Service (ADDS)

Output produced by TAFs form (0816 UTC 28 July 2014)
found at http://aviationweather.gov/adds/tafs/
 
KTUS 280520Z 2806/2906 08012G20KT P6SM VCSH SCT060 BKN100 
     TEMPO 2806/2808 VRB15G25KT 5SM TSRA BKN060CB 
     FM280900 13010KT P6SM SCT050 BKN100 
     FM281700 05006KT P6SM SCT060 BKN130 
     FM282000 25011KT P6SM VCSH SCT070 
     FM290200 13010KT P6SM BKN100